createdAt,value
2019-04-27T00:01:23.641Z,23.80
2019-04-27T00:04:11.667Z,24.80
2019-04-27T00:06:42.949Z,26.20
2019-04-27T00:09:23.667Z,30.50
2019-04-27T00:12:03.474Z,33.50
2019-04-27T00:14:33.570Z,28.10
2019-04-27T00:17:40.442Z,21.27
2019-04-27T00:19:53.410Z,22.30
2019-04-27T00:22:33.443Z,25.23
2019-04-27T00:25:03.529Z,23.83
2019-04-27T00:27:33.487Z,31.63
2019-04-27T00:30:03.875Z,22.67
2019-04-27T00:32:33.270Z,21.20
2019-04-27T00:35:03.695Z,21.80
2019-04-27T00:37:45.771Z,25.40
2019-04-27T00:40:15.974Z,23.40
2019-04-27T00:42:44.556Z,26.57
2019-04-27T00:45:13.625Z,27.73
2019-04-27T00:47:54.626Z,29.73
2019-04-27T00:50:13.345Z,27.43
2019-04-27T00:52:42.941Z,28.03
2019-04-27T00:55:13.080Z,27.83
2019-04-27T00:57:49.475Z,25.00
2019-04-27T01:00:34.365Z,27.80
2019-04-27T01:03:04.397Z,27.20
2019-04-27T01:05:33.846Z,24.63
2019-04-27T01:08:03.828Z,24.20
2019-04-27T01:10:33.479Z,25.93
2019-04-27T01:13:03.279Z,24.43
2019-04-27T01:15:33.996Z,27.00
2019-04-27T01:18:12.301Z,32.03
2019-04-27T01:20:33.469Z,30.20
2019-04-27T01:23:01.979Z,28.07
2019-04-27T01:25:32.355Z,35.03
2019-04-27T01:28:20.785Z,26.97
2019-04-27T01:30:56.764Z,27.77
2019-04-27T01:33:25.242Z,28.77
2019-04-27T01:35:53.699Z,30.37
2019-04-27T01:38:22.136Z,28.97
2019-04-27T01:40:50.638Z,27.20
2019-04-27T01:43:19.080Z,24.80
2019-04-27T01:45:48.823Z,27.97
2019-04-27T01:48:23.748Z,26.90
2019-04-27T01:50:49.209Z,29.13
2019-04-27T01:53:19.018Z,24.40
2019-04-27T01:55:49.167Z,22.60
2019-04-27T01:58:20.157Z,24.40
2019-04-27T02:00:50.498Z,24.47
2019-04-27T02:03:38.615Z,25.60
2019-04-27T02:06:07.200Z,23.67
2019-04-27T02:08:35.633Z,26.43
2019-04-27T02:11:04.741Z,24.97
2019-04-27T02:13:33.214Z,25.87
2019-04-27T02:16:01.681Z,22.83
2019-04-27T02:18:37.424Z,21.57
2019-04-27T02:21:00.631Z,22.20
2019-04-27T02:23:29.412Z,22.90
2019-04-27T02:25:58.616Z,24.27
2019-04-27T02:28:40.622Z,23.07
2019-04-27T02:31:19.857Z,23.67
2019-04-27T02:34:04.952Z,20.63
2019-04-27T02:36:33.420Z,20.70
2019-04-27T02:39:01.881Z,26.80
2019-04-27T02:41:30.376Z,23.20
2019-04-27T02:44:03.477Z,21.10
2019-04-27T02:46:31.939Z,21.70
2019-04-27T02:49:06.441Z,20.40
2019-04-27T02:51:35.034Z,20.50
2019-04-27T02:54:03.561Z,20.97
2019-04-27T02:56:31.943Z,18.70
2019-04-27T02:59:00.456Z,19.43
2019-04-27T03:01:30.838Z,22.67
2019-04-27T03:04:00.352Z,16.50
2019-04-27T03:06:29.958Z,19.20
2019-04-27T03:09:00.370Z,18.60
2019-04-27T03:11:30.919Z,22.30
2019-04-27T03:14:09.875Z,23.53
2019-04-27T03:16:50.615Z,20.27
2019-04-27T03:19:21.863Z,17.40
2019-04-27T03:21:55.132Z,18.00
2019-04-27T03:24:25.183Z,27.33
2019-04-27T03:26:55.316Z,19.60
2019-04-27T03:29:24.289Z,21.37
2019-04-27T03:31:54.454Z,19.00
2019-04-27T03:34:23.169Z,20.27
2019-04-27T03:36:51.829Z,19.43
2019-04-27T03:39:20.304Z,21.70
2019-04-27T03:41:50.213Z,20.83
2019-04-27T03:44:19.414Z,24.00
2019-04-27T03:46:49.619Z,20.50
2019-04-27T03:49:29.357Z,23.40
2019-04-27T03:51:50.269Z,27.23
2019-04-27T03:54:22.167Z,24.57
2019-04-27T03:56:52.173Z,26.47
2019-04-27T03:59:29.914Z,24.00
2019-04-27T04:01:58.980Z,22.73
2019-04-27T04:04:29.675Z,27.70
2019-04-27T04:07:15.011Z,26.97
2019-04-27T04:09:43.745Z,28.67
2019-04-27T04:12:30.366Z,24.27
2019-04-27T04:14:59.782Z,25.63
2019-04-27T04:17:30.688Z,25.47
2019-04-27T04:20:01.568Z,24.10
2019-04-27T04:22:30.417Z,26.67
2019-04-27T04:24:59.893Z,24.87
2019-04-27T04:27:29.930Z,30.23
2019-04-27T04:29:59.412Z,25.93
2019-04-27T04:32:29.859Z,26.83
2019-04-27T04:35:21.105Z,29.50
2019-04-27T04:37:49.610Z,32.63
2019-04-27T04:40:23.143Z,35.87
2019-04-27T04:42:52.297Z,30.10
2019-04-27T04:45:30.489Z,30.30
2019-04-27T04:48:00.309Z,34.33
2019-04-27T04:50:30.404Z,27.70
2019-04-27T04:52:59.975Z,33.30
2019-04-27T04:55:30.644Z,30.27
2019-04-27T04:57:59.148Z,28.27
2019-04-27T05:00:29.629Z,30.43
2019-04-27T05:02:59.464Z,32.17
2019-04-27T05:05:29.322Z,34.47
2019-04-27T05:07:58.760Z,31.80
2019-04-27T05:10:28.840Z,36.33
2019-04-27T05:12:59.014Z,33.40
2019-04-27T05:15:29.283Z,34.50
2019-04-27T05:17:59.158Z,35.97
2019-04-27T05:20:39.703Z,33.40
2019-04-27T05:23:09.616Z,38.33
2019-04-27T05:25:39.214Z,34.67
2019-04-27T05:28:09.904Z,35.60
2019-04-27T05:30:39.238Z,35.83
2019-04-27T05:33:11.281Z,35.77
2019-04-27T05:35:41.141Z,34.00
2019-04-27T05:38:12.947Z,35.40
2019-04-27T05:40:40.053Z,38.07
2019-04-27T05:43:09.189Z,36.90
2019-04-27T05:46:01.888Z,36.63
2019-04-27T05:48:32.023Z,36.40
2019-04-27T05:51:01.990Z,35.40
2019-04-27T05:53:30.846Z,38.60
2019-04-27T05:55:59.595Z,37.03
2019-04-27T05:58:28.897Z,36.90
2019-04-27T06:00:59.496Z,33.63
2019-04-27T06:03:29.634Z,36.33
2019-04-27T06:06:01.391Z,40.10
2019-04-27T06:08:29.466Z,38.50
2019-04-27T06:10:59.258Z,39.43
2019-04-27T06:13:30.748Z,38.80
2019-04-27T06:15:59.252Z,38.00
2019-04-27T06:18:29.412Z,41.10
2019-04-27T06:20:59.684Z,41.87
2019-04-27T06:23:28.940Z,45.47
2019-04-27T06:25:57.856Z,44.80
2019-04-27T06:28:26.438Z,43.87
2019-04-27T06:30:54.967Z,44.87
2019-04-27T06:33:31.973Z,45.60
2019-04-27T06:35:53.673Z,54.33
2019-04-27T06:38:22.112Z,48.53
2019-04-27T06:40:50.499Z,47.47
2019-04-27T06:43:19.055Z,45.73
2019-04-27T06:45:48.803Z,49.90
2019-04-27T06:48:19.312Z,45.93
2019-04-27T06:50:50.231Z,44.60
2019-04-27T06:53:19.129Z,45.70
2019-04-27T06:55:49.665Z,47.83
2019-04-27T06:58:19.970Z,44.43
2019-04-27T07:00:49.577Z,43.83
2019-04-27T07:03:18.898Z,42.90
2019-04-27T07:05:48.721Z,39.73
2019-04-27T07:08:18.627Z,46.57
2019-04-27T07:10:49.037Z,42.43
2019-04-27T07:13:19.417Z,44.33
2019-04-27T07:15:48.526Z,41.20
2019-04-27T07:18:18.641Z,39.87
2019-04-27T07:20:48.530Z,45.80
2019-04-27T07:23:18.667Z,45.70
2019-04-27T07:25:48.784Z,45.03
2019-04-27T07:28:18.967Z,50.33
2019-04-27T07:30:48.757Z,42.93
2019-04-27T07:33:18.598Z,41.10
2019-04-27T07:35:48.937Z,43.67
2019-04-27T07:38:19.223Z,42.63
2019-04-27T07:40:48.862Z,43.07
2019-04-27T07:43:29.312Z,42.70
2019-04-27T07:45:59.049Z,42.13
2019-04-27T07:48:28.574Z,52.43
2019-04-27T07:50:58.982Z,42.17
2019-04-27T07:53:29.135Z,46.07
2019-04-27T07:55:59.273Z,46.53
2019-04-27T07:58:29.501Z,46.60
2019-04-27T08:00:59.458Z,58.70
2019-04-27T08:03:29.138Z,53.07
2019-04-27T08:05:58.863Z,52.97
2019-04-27T08:08:28.604Z,52.27
2019-04-27T08:10:59.376Z,57.27
2019-04-27T08:13:29.445Z,57.80
2019-04-27T08:15:59.521Z,59.70
2019-04-27T08:18:30.274Z,57.00
2019-04-27T08:20:59.117Z,58.53
2019-04-27T08:23:29.566Z,61.27
2019-04-27T08:25:58.875Z,64.10
2019-04-27T08:28:29.299Z,59.43
2019-04-27T08:31:00.405Z,60.93
2019-04-27T08:33:29.277Z,63.47
2019-04-27T08:35:59.053Z,55.73
2019-04-27T08:38:28.924Z,54.37
2019-04-27T08:40:59.199Z,57.10
2019-04-27T08:43:29.018Z,52.40
2019-04-27T08:45:58.911Z,53.53
2019-04-27T08:48:34.686Z,54.23
2019-04-27T08:50:59.323Z,48.30
2019-04-27T08:53:29.819Z,55.40
2019-04-27T08:55:59.166Z,58.83
2019-04-27T08:58:28.626Z,56.73
2019-04-27T09:00:58.929Z,54.10
2019-04-27T09:03:29.308Z,58.80
2019-04-27T09:05:58.994Z,54.33
2019-04-27T09:08:29.352Z,55.40
2019-04-27T09:13:51.465Z,52.17
2019-04-27T09:16:39.880Z,50.43
2019-04-27T09:19:10.010Z,60.30
2019-04-27T09:21:40.106Z,49.27
2019-04-27T09:24:09.450Z,50.57
2019-04-27T09:26:39.029Z,53.50
2019-04-27T09:29:08.693Z,46.37
2019-04-27T09:31:37.468Z,47.73
2019-04-27T09:34:05.926Z,46.77
2019-04-27T09:36:34.321Z,47.77
2019-04-27T09:39:03.002Z,45.70
2019-04-27T09:41:31.507Z,44.47
2019-04-27T09:44:02.411Z,46.10
2019-04-27T09:46:30.148Z,46.50
2019-04-27T09:48:58.537Z,45.53
2019-04-27T09:51:27.008Z,43.57
2019-04-27T09:53:56.350Z,50.50
2019-04-27T09:56:26.114Z,47.37
2019-04-27T09:58:57.087Z,40.93
2019-04-27T10:01:26.499Z,37.63
2019-04-27T10:03:56.643Z,37.10
2019-04-27T10:06:29.654Z,39.40
2019-04-27T10:08:55.948Z,41.30
2019-04-27T10:11:26.505Z,37.70
2019-04-27T10:13:55.616Z,39.17
2019-04-27T10:16:25.696Z,34.43
2019-04-27T10:18:54.278Z,45.07
2019-04-27T10:21:22.720Z,35.60
2019-04-27T10:23:51.430Z,33.07
2019-04-27T10:26:19.874Z,37.97
2019-04-27T10:28:48.406Z,36.50
2019-04-27T10:31:16.864Z,41.13
2019-04-27T10:33:45.825Z,39.67
2019-04-27T10:36:15.522Z,35.57
2019-04-27T10:38:45.508Z,34.43
2019-04-27T10:41:15.817Z,35.70
2019-04-27T10:43:44.475Z,32.17
2019-04-27T10:46:13.249Z,37.37
2019-04-27T10:48:41.785Z,38.53
2019-04-27T10:51:10.614Z,32.37
2019-04-27T10:53:39.119Z,33.30
2019-04-27T10:56:07.477Z,32.77
2019-04-27T10:58:36.263Z,31.53
2019-04-27T11:01:06.436Z,34.97
2019-04-27T11:03:51.667Z,32.10
2019-04-27T11:06:33.666Z,37.60
2019-04-27T11:09:02.200Z,30.63
2019-04-27T11:11:31.036Z,35.30
2019-04-27T11:14:01.077Z,29.07
2019-04-27T11:16:29.856Z,31.90
2019-04-27T11:18:58.713Z,26.50
2019-04-27T11:21:27.292Z,31.83
2019-04-27T11:23:56.038Z,28.17
2019-04-27T11:26:26.218Z,29.47
2019-04-27T11:28:54.990Z,29.20
2019-04-27T11:31:23.474Z,28.40
2019-04-27T11:33:52.638Z,29.43
2019-04-27T11:36:25.653Z,26.23
2019-04-27T11:39:02.153Z,28.00
2019-04-27T11:41:30.908Z,24.07
2019-04-27T11:43:59.553Z,26.60
2019-04-27T11:46:28.213Z,29.97
2019-04-27T11:48:58.381Z,26.37
2019-04-27T11:51:27.033Z,22.50
2019-04-27T11:53:55.822Z,23.50
2019-04-27T11:56:24.506Z,22.00
2019-04-27T11:58:52.906Z,21.30
2019-04-27T12:01:21.445Z,18.50
2019-04-27T12:03:49.894Z,32.07
2019-04-27T12:06:18.337Z,21.17
2019-04-27T12:08:46.787Z,18.07
2019-04-27T12:11:16.035Z,18.30
2019-04-27T12:13:46.099Z,19.63
2019-04-27T12:16:17.701Z,23.03
2019-04-27T12:18:48.972Z,19.53
2019-04-27T12:21:16.436Z,21.53
2019-04-27T12:23:44.946Z,24.37
2019-04-27T12:26:15.890Z,17.87
2019-04-27T12:28:51.910Z,18.17
2019-04-27T12:31:25.797Z,19.17
2019-04-27T12:33:56.013Z,22.27
2019-04-27T12:36:25.806Z,17.53
2019-04-27T12:38:54.501Z,20.77
2019-04-27T12:41:24.560Z,22.90
2019-04-27T12:43:53.096Z,17.37
2019-04-27T12:46:21.627Z,22.20
2019-04-27T12:48:50.171Z,20.27
2019-04-27T12:51:20.953Z,20.73
2019-04-27T12:53:52.943Z,20.83
2019-04-27T12:56:28.242Z,21.10
2019-04-27T12:59:01.014Z,26.73
2019-04-27T13:01:30.350Z,27.20
2019-04-27T13:03:59.339Z,30.20
2019-04-27T13:06:27.865Z,23.53
2019-04-27T13:08:56.380Z,21.07
2019-04-27T13:11:26.571Z,21.67
2019-04-27T13:13:57.231Z,23.47
2019-04-27T13:16:27.222Z,22.10
2019-04-27T13:18:55.691Z,19.10
2019-04-27T13:21:26.321Z,19.57
2019-04-27T13:24:02.119Z,19.10
2019-04-27T13:26:25.141Z,20.30
2019-04-27T13:28:53.647Z,18.40
2019-04-27T13:31:22.541Z,22.17
2019-04-27T13:33:52.572Z,17.43
2019-04-27T13:36:21.252Z,19.80
2019-04-27T13:38:49.936Z,19.07
2019-04-27T13:41:27.801Z,17.07
2019-04-27T13:43:48.890Z,19.60
2019-04-27T13:46:26.033Z,17.53
2019-04-27T13:49:02.094Z,18.27
2019-04-27T13:51:47.884Z,17.33
2019-04-27T13:54:25.209Z,16.67
2019-04-27T13:56:47.701Z,17.03
2019-04-27T13:59:16.485Z,17.43
2019-04-27T14:01:45.230Z,14.40
2019-04-27T14:04:14.020Z,18.83
2019-04-27T14:06:44.403Z,15.77
2019-04-27T14:09:12.989Z,17.50
2019-04-27T14:11:41.776Z,18.73
2019-04-27T14:14:10.215Z,17.97
2019-04-27T14:16:39.195Z,19.70
2019-04-27T14:19:08.586Z,15.40
2019-04-27T14:21:38.948Z,17.43
2019-04-27T14:24:07.782Z,14.90
2019-04-27T14:26:38.448Z,17.03
2019-04-27T14:29:08.228Z,17.70
2019-04-27T14:31:39.473Z,15.83
2019-04-27T14:34:09.100Z,20.30
2019-04-27T14:36:38.039Z,18.40
2019-04-27T14:39:09.586Z,17.30
2019-04-27T14:41:38.762Z,25.47
2019-04-27T14:44:10.503Z,17.17
2019-04-27T14:46:38.791Z,18.70
2019-04-27T14:49:07.416Z,15.40
2019-04-27T14:51:35.944Z,23.97
2019-04-27T14:54:04.543Z,20.07
2019-04-27T14:56:33.042Z,21.00
2019-04-27T14:59:01.525Z,14.43
2019-04-27T15:01:30.085Z,19.80
2019-04-27T15:03:58.679Z,20.43
2019-04-27T15:06:27.197Z,13.37
2019-04-27T15:08:55.906Z,15.70
2019-04-27T15:11:24.617Z,18.93
2019-04-27T15:13:54.950Z,25.27
2019-04-27T15:16:23.431Z,16.00
2019-04-27T15:19:02.622Z,14.13
2019-04-27T15:21:32.603Z,24.70
2019-04-27T15:24:04.237Z,17.03
2019-04-27T15:26:32.410Z,14.50
2019-04-27T15:29:02.470Z,15.23
2019-04-27T15:31:32.552Z,15.20
2019-04-27T15:34:02.893Z,12.83
2019-04-27T15:36:52.740Z,13.90
2019-04-27T15:39:30.508Z,14.80
2019-04-27T15:42:01.935Z,15.00
2019-04-27T15:44:31.188Z,17.07
2019-04-27T15:47:03.601Z,12.90
2019-04-27T15:49:31.783Z,13.90
2019-04-27T15:52:00.410Z,20.13
2019-04-27T15:54:31.990Z,17.70
2019-04-27T15:57:01.570Z,16.53
2019-04-27T15:59:37.836Z,16.57
2019-04-27T16:02:05.513Z,14.13
2019-04-27T16:04:34.652Z,13.40
2019-04-27T16:07:03.853Z,20.53
2019-04-27T16:09:32.525Z,17.50
2019-04-27T16:12:09.918Z,21.87
2019-04-27T16:14:31.537Z,25.47
2019-04-27T16:17:03.021Z,14.87
2019-04-27T16:19:30.321Z,17.77
2019-04-27T16:21:59.214Z,17.10
2019-04-27T16:24:29.041Z,22.23
2019-04-27T16:26:59.141Z,16.40
2019-04-27T16:29:31.382Z,14.87
2019-04-27T16:31:58.421Z,18.13
2019-04-27T16:34:28.671Z,14.00
2019-04-27T16:36:57.815Z,18.73
2019-04-27T16:39:26.303Z,18.40
2019-04-27T16:41:54.829Z,16.07
2019-04-27T16:44:23.438Z,17.07
2019-04-27T16:46:52.043Z,19.43
2019-04-27T16:49:20.473Z,15.87
2019-04-27T16:51:49.382Z,19.83
2019-04-27T16:54:21.186Z,18.97
2019-04-27T16:56:52.279Z,19.30
2019-04-27T16:59:39.772Z,18.67
2019-04-27T17:01:50.280Z,17.00
2019-04-27T17:04:19.191Z,21.67
2019-04-27T17:06:49.492Z,21.97
2019-04-27T17:09:18.978Z,16.87
2019-04-27T17:11:50.177Z,16.20
2019-04-27T17:14:22.226Z,17.17
2019-04-27T17:16:54.150Z,16.23
2019-04-27T17:19:24.426Z,20.57
2019-04-27T17:21:52.949Z,20.50
2019-04-27T17:24:42.025Z,18.87
2019-04-27T17:27:06.124Z,20.97
2019-04-27T17:29:36.196Z,14.57
2019-04-27T17:32:05.291Z,16.83
2019-04-27T17:34:33.910Z,26.40
2019-04-27T17:37:02.485Z,16.93
2019-04-27T17:39:31.397Z,20.20
2019-04-27T17:41:59.907Z,16.13
2019-04-27T17:44:30.240Z,20.37
2019-04-27T17:46:58.721Z,18.70
2019-04-27T17:49:28.088Z,18.93
2019-04-27T17:51:58.573Z,16.97
2019-04-27T17:54:29.050Z,17.47
2019-04-27T17:56:57.610Z,16.37
2019-04-27T17:59:26.322Z,37.10
2019-04-27T18:02:00.941Z,24.40
2019-04-27T18:04:25.165Z,25.70
2019-04-27T18:06:55.511Z,30.80
2019-04-27T18:09:24.059Z,39.77
2019-04-27T18:11:54.381Z,19.30
2019-04-27T18:14:22.867Z,19.00
2019-04-27T18:16:51.321Z,21.03
2019-04-27T18:19:21.539Z,23.60
2019-04-27T18:21:52.573Z,17.33
2019-04-27T18:24:25.058Z,16.63
2019-04-27T18:27:03.238Z,14.13
2019-04-27T18:29:30.949Z,17.90
2019-04-27T18:31:59.751Z,20.77
2019-04-27T18:34:28.715Z,16.57
2019-04-27T18:36:58.067Z,16.57
2019-04-27T18:39:26.606Z,18.30
2019-04-27T18:41:55.166Z,16.23
2019-04-27T18:44:28.066Z,18.00
2019-04-27T18:46:58.854Z,18.70
2019-04-27T18:49:34.994Z,22.03
2019-04-27T18:52:06.560Z,16.80
2019-04-27T18:54:38.174Z,14.90
2019-04-27T18:57:10.683Z,15.20
2019-04-27T18:59:38.175Z,14.53
2019-04-27T19:02:08.431Z,14.43
2019-04-27T19:04:37.114Z,17.63
2019-04-27T19:07:06.058Z,12.80
2019-04-27T19:09:34.665Z,11.90
2019-04-27T19:12:03.544Z,14.50
2019-04-27T19:14:32.094Z,15.90
2019-04-27T19:17:01.126Z,14.00
2019-04-27T19:19:29.818Z,11.13
2019-04-27T19:21:59.058Z,12.03
2019-04-27T19:24:28.244Z,13.97
2019-04-27T19:26:58.812Z,15.63
2019-04-27T19:29:29.295Z,20.33
2019-04-27T19:32:02.162Z,13.90
2019-04-27T19:34:30.784Z,11.23
2019-04-27T19:36:59.451Z,23.30
2019-04-27T19:39:28.696Z,11.80
2019-04-27T19:42:02.879Z,14.03
2019-04-27T19:44:29.226Z,10.60
2019-04-27T19:47:00.212Z,13.73
2019-04-27T19:49:29.444Z,14.50
2019-04-27T19:51:59.366Z,11.27
2019-04-27T19:54:30.077Z,12.50
2019-04-27T19:56:59.548Z,11.13
2019-04-27T19:59:37.964Z,12.07
2019-04-27T20:02:08.746Z,11.27
2019-04-27T20:04:38.740Z,19.80
2019-04-27T20:07:10.350Z,10.27
2019-04-27T20:09:45.052Z,11.10
2019-04-27T20:12:13.864Z,11.40
2019-04-27T20:14:57.364Z,9.70
2019-04-27T20:17:31.226Z,12.47
2019-04-27T20:20:00.949Z,10.33
2019-04-27T20:22:29.627Z,12.70
2019-04-27T20:24:58.122Z,10.50
2019-04-27T20:27:26.574Z,12.37
2019-04-27T20:29:55.077Z,10.23
2019-04-27T20:32:24.088Z,12.77
2019-04-27T20:34:52.592Z,11.30
2019-04-27T20:37:21.166Z,10.53
2019-04-27T20:39:51.513Z,11.93
2019-04-27T20:42:21.181Z,13.30
2019-04-27T20:44:51.430Z,11.53
2019-04-27T20:47:20.018Z,14.70
2019-04-27T20:49:48.803Z,12.07
2019-04-27T20:52:20.802Z,10.13
2019-04-27T20:54:51.453Z,11.50
2019-04-27T20:57:19.238Z,13.30
2019-04-27T20:59:47.690Z,10.90
2019-04-27T21:02:32.893Z,9.87
2019-04-27T21:05:02.959Z,9.87
2019-04-27T21:07:42.609Z,11.83
2019-04-27T21:10:11.310Z,10.37
2019-04-27T21:12:41.184Z,12.97
2019-04-27T21:15:11.258Z,12.43
2019-04-27T21:17:40.655Z,12.07
2019-04-27T21:20:11.378Z,14.73
2019-04-27T21:22:41.654Z,11.20
2019-04-27T21:25:11.831Z,13.87
2019-04-27T21:27:41.054Z,10.90
2019-04-27T21:30:11.449Z,11.57
2019-04-27T21:32:39.999Z,15.07
2019-04-27T21:35:10.858Z,13.53
2019-04-27T21:37:41.560Z,11.43
2019-04-27T21:40:15.261Z,11.80
2019-04-27T21:42:43.676Z,13.27
2019-04-27T21:45:12.661Z,11.30
2019-04-27T21:47:44.387Z,13.17
2019-04-27T21:50:13.223Z,12.63
2019-04-27T21:52:43.492Z,14.20
2019-04-27T21:55:13.611Z,12.07
2019-04-27T21:57:42.337Z,18.57
2019-04-27T22:00:38.785Z,13.40
2019-04-27T22:03:07.590Z,12.90
2019-04-27T22:05:36.171Z,13.27
2019-04-27T22:08:04.864Z,16.97
2019-04-27T22:10:33.394Z,12.33
2019-04-27T22:13:06.591Z,12.20
2019-04-27T22:15:35.015Z,12.23
2019-04-27T22:18:03.549Z,14.50
2019-04-27T22:20:33.467Z,12.87
2019-04-27T22:23:06.411Z,12.43
2019-04-27T22:25:38.955Z,14.70
2019-04-27T22:28:07.750Z,16.30
2019-04-27T22:30:36.643Z,12.43
2019-04-27T22:33:05.048Z,12.50
2019-04-27T22:35:33.577Z,12.43
2019-04-27T22:38:02.499Z,14.67
2019-04-27T22:40:38.343Z,13.73
2019-04-27T22:43:08.441Z,15.97
2019-04-27T22:45:38.475Z,15.60
2019-04-27T22:48:06.948Z,13.13
2019-04-27T22:50:35.388Z,14.30
2019-04-27T22:53:03.897Z,13.67
2019-04-27T22:55:32.386Z,20.50
2019-04-27T22:58:08.646Z,14.77
2019-04-27T23:00:51.391Z,16.20
2019-04-27T23:03:24.191Z,13.57
2019-04-27T23:05:52.695Z,12.63
2019-04-27T23:08:22.708Z,15.20
2019-04-27T23:10:51.477Z,13.43
2019-04-27T23:13:21.350Z,13.40
2019-04-27T23:15:51.455Z,13.30
2019-04-27T23:18:20.850Z,15.47
2019-04-27T23:20:50.026Z,16.03
2019-04-27T23:23:18.548Z,12.97
2019-04-27T23:25:47.004Z,12.70
2019-04-27T23:28:15.559Z,14.23
2019-04-27T23:30:45.654Z,13.93
2019-04-27T23:33:14.189Z,12.50
2019-04-27T23:35:42.672Z,22.90
2019-04-27T23:38:17.662Z,14.20
2019-04-27T23:40:41.825Z,12.50
2019-04-27T23:43:11.481Z,12.60
2019-04-27T23:45:41.795Z,13.53
2019-04-27T23:48:12.233Z,15.60
2019-04-27T23:50:42.581Z,13.47
2019-04-27T23:53:18.531Z,16.30
2019-04-27T23:55:46.963Z,13.13
2019-04-27T23:58:15.459Z,12.93
